createdAt,value
2023-03-14T00:08:53.515Z,98472.41
2023-03-14T00:18:57.943Z,98488.69
2023-03-14T00:29:01.397Z,98493.69
2023-03-14T00:39:05.860Z,98491.09
2023-03-14T00:49:08.998Z,98471.63
2023-03-14T00:59:13.264Z,98495.19
2023-03-14T01:09:18.803Z,98495.38
2023-03-14T01:19:23.459Z,98490.75
2023-03-14T01:29:27.115Z,98474.16
2023-03-14T01:39:32.431Z,98472.16
2023-03-14T01:49:37.851Z,98465.16
2023-03-14T01:59:53.875Z,98462.34
2023-03-14T02:09:58.722Z,98474.91
2023-03-14T02:20:30.271Z,98454.03
2023-03-14T02:30:36.278Z,98448.81
2023-03-14T02:40:42.450Z,98417.91
2023-03-14T02:50:49.531Z,98394.84
2023-03-14T03:00:52.947Z,98381.22
2023-03-14T03:10:59.588Z,98372.38
2023-03-14T03:21:10.021Z,98380.88
2023-03-14T03:31:14.831Z,98380.06
2023-03-14T03:41:18.004Z,98370.28
2023-03-14T03:51:22.529Z,98358.53
2023-03-14T04:01:25.850Z,98362.69
2023-03-14T04:11:34.990Z,98366.56
2023-03-14T04:21:45.970Z,98366.28
2023-03-14T04:31:52.365Z,98364.00
2023-03-14T04:41:55.393Z,98349.47
2023-03-14T04:52:00.320Z,98346.38
2023-03-14T05:02:05.749Z,98338.47
2023-03-14T05:12:32.221Z,98317.06
2023-03-14T05:22:49.487Z,98286.66
2023-03-14T05:33:12.724Z,98285.66
2023-03-14T05:43:39.029Z,98284.00
2023-03-14T05:53:53.200Z,98299.88
2023-03-14T06:04:21.769Z,98284.28
2023-03-14T06:14:31.926Z,98282.34
2023-03-14T06:24:36.549Z,98269.28
2023-03-14T06:34:42.201Z,98260.00
2023-03-14T06:44:47.961Z,98262.50
2023-03-14T06:54:52.992Z,98274.28
2023-03-14T07:04:59.454Z,98285.94
2023-03-14T07:15:17.619Z,98288.47
2023-03-14T07:25:22.667Z,98299.78
2023-03-14T07:35:27.629Z,98289.72
2023-03-14T07:45:31.109Z,98311.03
2023-03-14T07:55:35.603Z,98320.00
2023-03-14T08:05:39.522Z,98315.28
2023-03-14T08:15:43.844Z,98315.28
2023-03-14T08:25:47.923Z,98324.59
2023-03-14T08:35:55.613Z,98343.94
2023-03-14T08:46:00.524Z,98346.00
2023-03-14T08:56:07.925Z,98343.03
2023-03-14T09:06:14.988Z,98360.06
2023-03-14T09:16:21.433Z,98388.19
2023-03-14T09:26:25.985Z,98394.91
2023-03-14T09:36:30.518Z,98407.94
2023-03-14T09:46:36.319Z,98428.84
2023-03-14T09:56:40.892Z,98550.22
2023-03-14T10:28:46.228Z,98709.53
2023-03-14T10:38:51.686Z,98752.91
2023-03-14T10:48:56.136Z,98760.81
2023-03-14T10:59:01.126Z,98782.63
2023-03-14T11:09:13.446Z,98818.59
2023-03-14T11:19:30.816Z,98843.44
2023-03-14T11:29:41.579Z,98860.59
2023-03-14T11:39:57.383Z,98876.13
2023-03-14T11:50:07.558Z,98906.16
2023-03-14T12:00:18.408Z,98918.00
2023-03-14T12:10:22.069Z,98957.06
2023-03-14T12:30:56.609Z,99085.75
2023-03-14T12:41:08.982Z,99114.50
2023-03-14T12:51:17.236Z,99140.72
2023-03-14T13:01:24.074Z,99161.63
2023-03-14T13:11:28.287Z,99180.66
2023-03-14T13:21:39.727Z,99207.09
2023-03-14T13:31:46.135Z,99240.59
2023-03-14T13:41:51.730Z,99269.59
2023-03-14T13:51:55.170Z,99307.41
2023-03-14T14:02:02.853Z,99338.94
2023-03-14T14:12:16.342Z,99369.88
2023-03-14T14:22:22.315Z,99420.88
2023-03-14T14:32:25.554Z,99452.28
2023-03-14T14:42:33.844Z,99481.22
2023-03-14T14:52:42.272Z,99502.91
2023-03-14T15:02:50.737Z,99535.75
2023-03-14T15:12:54.612Z,99565.13
2023-03-14T15:22:59.600Z,99585.97
2023-03-14T15:33:03.527Z,99605.13
2023-03-14T15:43:08.262Z,99626.19
2023-03-14T15:53:11.620Z,99635.44
2023-03-14T16:03:15.942Z,99654.72
2023-03-14T16:13:18.812Z,99675.94
2023-03-14T16:23:53.636Z,99686.84
2023-03-14T16:33:56.857Z,99703.78
2023-03-14T16:44:03.071Z,99722.44
2023-03-14T16:54:05.979Z,99752.50
2023-03-14T17:04:11.584Z,99770.22
2023-03-14T17:14:15.108Z,99796.91
2023-03-14T17:24:19.878Z,99822.06
2023-03-14T17:34:22.718Z,99848.53
2023-03-14T17:44:29.736Z,99883.44
2023-03-14T17:54:32.920Z,99918.97
2023-03-14T18:04:37.834Z,99934.22
2023-03-14T18:14:44.480Z,99975.31
2023-03-14T18:25:11.339Z,99996.47
2023-03-14T18:35:14.382Z,100016.25
2023-03-14T18:45:19.885Z,100039.38
2023-03-14T18:55:23.131Z,100058.84
2023-03-14T19:05:27.449Z,100079.00
2023-03-14T19:15:30.877Z,100099.56
2023-03-14T19:25:35.374Z,100117.38
2023-03-14T19:35:38.465Z,100123.47
2023-03-14T19:45:44.831Z,100151.50
2023-03-14T19:55:49.205Z,100178.00
2023-03-14T20:05:54.450Z,100211.41
2023-03-14T20:15:57.441Z,100225.03
2023-03-14T20:26:03.273Z,100246.34
2023-03-14T20:36:07.798Z,100254.63
2023-03-14T20:46:14.214Z,100274.44
2023-03-14T20:56:17.067Z,100291.59
2023-03-14T21:06:22.322Z,100300.06
2023-03-14T21:16:25.167Z,100308.69
2023-03-14T21:26:29.581Z,100330.94
2023-03-14T21:36:32.833Z,100346.34
2023-03-14T21:46:37.648Z,100360.81
2023-03-14T21:56:41.428Z,100359.09
2023-03-14T22:06:46.514Z,100374.44
2023-03-14T22:16:49.678Z,100384.63
2023-03-14T22:26:54.718Z,100398.19
2023-03-14T22:36:57.585Z,100395.69
2023-03-14T22:47:04.051Z,100403.28
2023-03-14T22:57:07.537Z,100397.34
2023-03-14T23:07:12.368Z,100404.16
2023-03-14T23:17:15.537Z,100416.00
2023-03-14T23:27:20.058Z,100432.97
2023-03-14T23:37:23.588Z,100429.59
2023-03-14T23:47:28.455Z,100436.38
2023-03-14T23:57:31.928Z,100452.44
